Nearby METAR Reports

 

KHIF - Hill Afb/Ogden, Utah, USA
Distance from station: ENE 6mi, 9km
Updated: Thu, 24-May-2018 9:58pm MDT
Clear
Clear
 Wind from E
Wind: E 7 mph , 11 km/h
Temperature: 68°F , 20°C
Dew Point: 39°F , 4°C
Humidity: 35%
Barometer: 30.04 inHg , 1017.3 hPa
Clouds: Clear
Visibility: 10 miles , 16 km
2018/05/25 03:58 KHIF 250358Z AUTO 10006KT 10SM CLR 20/04 A3004 RMK AO2 SLP121 T01970038
KOGD - Ogden, Utah, USA
Distance from station: NNE 9mi, 14km
Updated: Wed, 31-Dec-1969 5:00pm MST
NOT Current
unable to load KOGD data RC=404 Not Found
unable to load KOGD data RC=404 Not Found
 
 
KSLC - Salt Lake City, Utah, USA
Distance from station: SSE 21mi, 34km
Updated: Thu, 24-May-2018 9:54pm MDT
Clear
Clear
 Wind from S
Wind: S 7 mph , 11 km/h
Temperature: 72°F , 22°C
Dew Point: 45°F , 7°C
Humidity: 38%
Barometer: 29.99 inHg , 1015.6 hPa
Clouds: Clear
Visibility: 10 miles , 16 km
2018/05/25 03:54 KSLC 250354Z 18006KT 10SM CLR 22/07 A2999 RMK AO2 SLP108 T02220072
KLGU - Logan, Utah, USA
Distance from station: NNE 50mi, 80km
Updated: Thu, 24-May-2018 9:51pm MDT
Clear
Clear
 Wind from calm
Wind: Calm
Temperature: 63°F , 17°C
Dew Point: 52°F , 11°C
Humidity: 68%
Barometer: 30.05 inHg , 1017.6 hPa
Clouds: Clear
Visibility: 10 miles , 16 km
2018/05/25 03:51 KLGU 250351Z AUTO 00000KT 10SM CLR 17/11 A3005 RMK AO2 SLP137 T01670111
 
K36U - Heber/Russ Mcdon, Utah, USA
Distance from station: SE 53mi, 85km
Updated: Wed, 11-Oct-2017 6:50pm MDT
NOT Current
Clear
Clear
 Wind from SSW
Wind: SSW 10 mph , 17 km/h, Gust: 18 mph , 30 km/h
Temperature: 63°F , 17°C
Dew Point: 16°F , -9°C
Humidity: 16%
Barometer: 29.87 inHg , 1011.5 hPa
Clouds: Clear
Visibility: 10 miles , 16 km
2017/10/12 00:50 K36U 120050Z AUTO 21009G16KT 10SM CLR 17/M09 A2987 RMK AO2
KEVW - Evanston, Wyoming, USA
Distance from station: ENE 55mi, 89km
Updated: Thu, 24-May-2018 9:53pm MDT
Clear
Clear
 Wind from N
Wind: N 8 mph , 13 km/h
Temperature: 59°F , 15°C
Dew Point: 37°F , 3°C
Humidity: 45%
Barometer: 30.21 inHg , 1023 hPa
Clouds: Clear
Visibility: 10 miles , 16 km
2018/05/25 03:53 KEVW 250353Z AUTO 36007KT 10SM CLR 15/03 A3021 RMK AO2 SLP150 T01500033
 
KPVU - Provo Muni, Utah, USA
Distance from station: SSE 62mi, 100km
Updated: Thu, 24-May-2018 9:56pm MDT
Clear
Clear
 Wind from SSW
Wind: SSW 3 mph , 6 km/h
Temperature: 72°F , 22°C
Dew Point: 48°F , 9°C
Humidity: 44%
Barometer: 30.03 inHg , 1016.9 hPa
Clouds: Clear
Visibility: 10 miles , 16 km
2018/05/25 03:56 KPVU 250356Z AUTO 20003KT 10SM CLR 22/09 A3003 RMK AO2 SLP119 T02170094
KDPG - Dugway Prvg Grou, Utah, USA
Distance from station: SW 75mi, 121km
Updated: Thu, 24-May-2018 3:56pm MDT
NOT Current
Few Clouds
Few Clouds
 Wind from S
Wind: S 6 mph , 9 km/h, Gust: 17 mph , 28 km/h
Temperature: 84°F , 29°C
Dew Point: 23°F , -5°C
Humidity: 10%
Barometer: 30.05 inHg , 1017.6 hPa
Clouds: Few Clouds
Visibility: 40 miles , 64 km
Cloud details: Few Clouds 7500 ft
2018/05/24 21:56 KDPG 242156Z 19005G15KT 40SM FEW075 29/M05 A3005 RMK SLP128 T02921054
 
KENV - Wendover (aut), Utah, USA
Distance from station: WSW 105mi, 169km
Updated: Thu, 24-May-2018 9:56pm MDT
Clear
Clear
 Wind from NNE
Wind: NNE 6 mph , 9 km/h
Temperature: 73°F , 23°C
Dew Point: 36°F , 2°C
Humidity: 25%
Barometer: 29.98 inHg , 1015.2 hPa
Clouds: Clear
Visibility: 10 miles , 16 km
2018/05/25 03:56 KENV 250356Z AUTO 03005KT 10SM CLR 23/02 A2998 RMK AO2 SLP118 T02330017
KPUC - Price, Utah, USA
Distance from station: SE 123mi, 197km
Updated: Thu, 24-May-2018 9:53pm MDT
Clear
Clear
 Wind from E
Wind: E 8 mph , 13 km/h
Temperature: 70°F , 21°C
Dew Point: 23°F , -5°C
Humidity: 17%
Barometer: 30.10 inHg , 1019.3 hPa
Clouds: Clear
Visibility: 10 miles , 16 km
2018/05/25 03:53 KPUC 250353Z AUTO 08007KT 10SM CLR 21/M05 A3010 RMK AO2 SLP117 T02061050
 
KPIH - Pocatello, Idaho, USA
Distance from station: NNW 130mi, 208km
Updated: Thu, 24-May-2018 9:53pm MDT
Clear
Clear
 Wind from ENE
Wind: ENE 3 mph , 6 km/h
Temperature: 64°F , 18°C
Dew Point: 48°F , 9°C
Humidity: 56%
Barometer: 30.07 inHg , 1018.3 hPa
Clouds: Clear
Visibility: 10 miles , 16 km
2018/05/25 03:53 KPIH 250353Z AUTO 07003KT 10SM CLR 18/09 A3007 RMK AO2 SLP142 T01830089
KBYI - Burley, Idaho, USA
Distance from station: NW 134mi, 216km
Updated: Thu, 24-May-2018 9:53pm MDT
Few Clouds
Few Clouds
 Wind from calm
Wind: Calm
Temperature: 61°F , 16°C
Dew Point: 52°F , 11°C
Humidity: 72%
Barometer: 30.03 inHg , 1016.9 hPa
Clouds: Few Clouds
Visibility: 10 miles , 16 km
Cloud details: Few Clouds 12000 ft
2018/05/25 03:53 KBYI 250353Z AUTO 00000KT 10SM FEW120 16/11 A3003 RMK AO2 SLP134 T01560111
 
KVEL - Vernal, Utah, USA
Distance from station: ESE 140mi, 226km
Updated: Thu, 24-May-2018 9:53pm MDT
Clear
Clear
 Wind from NW
Wind: NW 9 mph , 15 km/h
Temperature: 68°F , 20°C
Dew Point: 34°F , 1°C
Humidity: 28%
Barometer: 30.07 inHg , 1018.3 hPa
Clouds: Clear
Visibility: 10 miles , 16 km
2018/05/25 03:53 KVEL 250353Z AUTO 32008KT 10SM CLR 20/01 A3007 RMK AO2 SLP124 T02000011
KBPI - Big Piney, Wyoming, USA
Distance from station: NE 145mi, 234km
Updated: Thu, 24-May-2018 9:53pm MDT
Clear
Clear
 Wind from NNE
Wind: NNE 13 mph , 20 km/h
Temperature: 52°F , 11°C
Dew Point: 43°F , 6°C
Humidity: 72%
Barometer: 30.24 inHg , 1024 hPa
Clouds: Clear
Visibility: 10 miles , 16 km
2018/05/25 03:53 KBPI 250353Z AUTO 02011KT 10SM CLR 11/06 A3024 RMK AO2 SLP169 T01060061